Sligo Airport - TAF
(Terminal Area Forecast)

Issued at 21:06 UTC on Mon. 23-Apr-18

--- METARS(SA) ---

METAR EISG(SLIGO) 232100Z AUTO 24011KT CAVOK 09/07 Q1010 =

--- TAFS() ---

TAF EISG(SLIGO) 232000Z 2321/2406 23012KT 9999 SCT018 BKN025 BECMG

2404/2406 20008KT =

--- SIGMETS(WS) ---

IE - No VALID SIGMETS/Warnings FOR THIS AREA

--- SIGMETS Volcanic(WV) ---

IE - No VALID SIGMETS/Warnings FOR THIS AREA

--- SIGMETS(WS) ---

UK - No VALID SIGMETS/Warnings FOR THIS AREA

Sligo Airport - METARs

Latest METARs for Sligo and Donegal Airports - updated every 30 mins